Terminal Aerodrome Forecast
Issued by NWS

Home | Current Version | Previous Version | Text Only | Print | Product List | Glossary On
Versions: 1 2 3 4 5 6 7 8 9 10 11 12 13 14 15 16 17
000
FTUS42 KJAX 202300
TAFVQQ
TAF
KVQQ 202320Z 2100/2124 11006KT P6SM SCT030 BKN250
     FM210600 00000KT 5SM BR SCT250
      TEMPO 2108/2112 2SM BR
     FM211500 34006KT P6SM FEW250
     FM212000 29004KT P6SM SCT050=

USA.gov is the U.S. government's official web portal to all federal, state and local government web resources and services.